Fermeuse, Canada
Current Conditions -  °F | °C
As of 6:00 PM on Saturday 25 Oct 2014 (Local Time) from CYYT Reporting Station
Drizzle Drizzle  
Wind Chill: 45°   Ceiling: 200
Heat Index: 48°   Visibility: 0.25mi
Dew Point: 48°   Wind: 8mph
Humidity: 100%   Direction: 40°NE
Pressure: 29.35"   Gusts: NA
Location:  46.97°N, 52.97°W
Report Text: CYYT 252000Z 04007KT 1/4SM R11/3000FT/N -DZ FG VV002 09/09 A2935 RMK FG8 SLP942
Loading
Personal Weather Stations






























Interactive Weather Map
Tropical Storm Tracking
New forecast layout! Learn more

10-Day Weather Forecast

Advertisements
Track Severe Weather on mobile